This is the latest recevied weather packets stored in our database for station/object SQ5OUZ-1. If no packets are shown the sender has not sent any weather packets the latest 10 day(s).
| Time | Temp. | Humidity | Pressure | Rain* | Wind** | Luminosity | Snow |
|---|---|---|---|---|---|---|---|
| 1777937967 | 16.67° C | 42% | 1012.7 hPa | - | - | - | - |
| 1777937064 | 17.22° C | 41% | 1012.7 hPa | - | - | - | - |
| 1777936161 | 17.22° C | 41% | 1012.8 hPa | - | - | - | - |
| 1777935257 | 17.22° C | 40% | 1013 hPa | - | - | - | - |
| 1777934354 | 17.22° C | 39% | 1013 hPa | - | - | - | - |
| 1777933451 | 17.78° C | 38% | 1013.1 hPa | - | - | - | - |
| 1777932547 | 17.78° C | 37% | 1013 hPa | - | - | - | - |
| 1777931643 | 17.78° C | 35% | 1013.1 hPa | - | - | - | - |
| 1777930740 | 18.33° C | 34% | 1013 hPa | - | - | - | - |
| 1777929837 | 18.89° C | 33% | 1013 hPa | - | - | - | - |
| 1777928934 | 18.89° C | 33% | 1013.1 hPa | - | - | - | - |
| 1777928030 | 18.33° C | 34% | 1013 hPa | - | - | - | - |
| 1777927127 | 18.89° C | 34% | 1013 hPa | - | - | - | - |
| 1777926224 | 18.89° C | 35% | 1013 hPa | - | - | - | - |
| 1777925321 | 19.44° C | 33% | 1012.9 hPa | - | - | - | - |
| 1777924409 | 19.44° C | 34% | 1012.9 hPa | - | - | - | - |
| 1777923505 | 20° C | 33% | 1012.9 hPa | - | - | - | - |
| 1777922602 | 21.11° C | 31% | 1012.9 hPa | - | - | - | - |
| 1777921698 | 21.11° C | 30% | 1012.8 hPa | - | - | - | - |
| 1777920794 | 21.67° C | 30% | 1012.8 hPa | - | - | - | - |
| 1777919891 | 21.67° C | 29% | 1012.7 hPa | - | - | - | - |
| 1777918988 | 26.11° C | 31% | 1012.6 hPa | - | - | - | - |
| 1777918085 | 22.78° C | 27% | 1012.4 hPa | - | - | - | - |
| 1777917181 | 23.33° C | 26% | 1012.4 hPa | - | - | - | - |
| 1777916276 | 23.89° C | 25% | 1012.3 hPa | - | - | - | - |
* Rain since midnight (hover to see other rain measurements)
** Current wind speed in m/s (hover to see current wind gust speed)